Main page
METAR-TAF:

METAR-TAF

Airports :

Belgrade Nikola Tesla Airport

Belgrade, Serbia

latitude: 44-49N, longitude: 020-17E, elevation: 96 m

Current weather observation

The report was made 37 minutes ago, at 22:30 UTC
Wind 2 kt from variable directions
Temperature 20°C
Humidity 68%
Pressure 1017 hPa
Visibility 10 km or more
no clouds below 1500 m and no cumulonimbus

METAR: LYBE 162230Z VRB02KT CAVOK 20/14 Q1017 NOSIG

Time: 01:07 (23:07 UTC)

Forecast

The report was made 6 hours and 7 minutes ago, at 17:00 UTC
Forecast valid from 16 at 18 UTC to 17 at 18 UTC
Wind 5 kt from the West/Northwest
Visibility 10 km or more
no clouds below 1500 m and no cumulonimbus

TAF: LYBE 161700Z 1618/1718 29005KT CAVOK TX30/1713Z TN12/1703Z

Weather observations and forecasts of more than 4000 airports (METAR and TAF reports).

The available stations are represented by yellow and red dots on the map.

Hover mouse over dot to see the name of the station.

Then click to see weather observations and forecasts.

To change the map : click on the green buttons with a black cross to zoom in, on the green button with a dash to zoom out, or on the green arrows for adjacent maps.


METAR-TAF: